Time;durP1;ratioP1;P1;durP2;ratioP2;P2;SDS_P1;SDS_P2;PMS_P1;PMS_P2;Temp;Humidity;BMP_temperature;BMP_pressure;BME280_temperature;BME280_humidity;BME280_pressure;Samples;Min_cycle;Max_cycle;Signal;HPM_P1;HPM_P2
2022/06/19 00:00:40;;;;;;;27.53;8.03;;;22.50;99.90;;;;;;5078150;28;20479;-76
2022/06/19 00:03:10;;;;;;;25.30;7.30;;;22.40;99.90;;;;;;5078329;28;20900;-75
2022/06/19 00:05:37;;;;;;;23.60;7.40;;;22.40;99.90;;;;;;5081569;28;20455;-76
2022/06/19 00:08:04;;;;;;;19.80;6.80;;;22.40;99.90;;;;;;5077196;28;20452;-76
2022/06/19 00:10:31;;;;;;;15.13;6.60;;;22.40;99.90;;;;;;5079674;28;20478;-75
2022/06/19 00:12:58;;;;;;;23.27;6.80;;;22.40;99.90;;;;;;5079908;28;20504;-75
2022/06/19 00:15:24;;;;;;;21.00;6.87;;;22.50;99.90;;;;;;5076848;28;21032;-75
2022/06/19 00:17:52;;;;;;;17.77;6.47;;;22.50;99.90;;;;;;5077856;28;20447;-75
2022/06/19 00:20:19;;;;;;;18.70;6.70;;;22.50;99.90;;;;;;5078365;28;20458;-75
2022/06/19 00:22:46;;;;;;;16.87;6.30;;;22.50;99.90;;;;;;5079459;28;20450;-75
2022/06/19 00:25:13;;;;;;;14.63;5.40;;;22.50;99.90;;;;;;5077502;28;20443;-75
2022/06/19 00:27:41;;;;;;;25.47;6.20;;;22.50;99.90;;;;;;5079123;28;20479;-75
2022/06/19 00:30:10;;;;;;;22.13;6.90;;;22.50;99.90;;;;;;5077826;28;20475;-75
2022/06/19 00:32:37;;;;;;;20.90;6.20;;;22.40;99.90;;;;;;5077143;28;20984;-75
2022/06/19 00:35:06;;;;;;;14.70;6.37;;;22.30;99.90;;;;;;5075847;28;20505;-75
2022/06/19 00:37:34;;;;;;;18.20;6.73;;;22.30;99.90;;;;;;5074974;28;20464;-74
2022/06/19 00:40:01;;;;;;;14.53;5.50;;;22.20;99.90;;;;;;5076100;28;20475;-75
2022/06/19 00:42:29;;;;;;;12.60;5.90;;;22.10;99.90;;;;;;5077718;28;20455;-75
2022/06/19 00:44:56;;;;;;;15.37;6.23;;;22.00;99.90;;;;;;5077231;28;20450;-75
2022/06/19 00:47:26;;;;;;;25.37;6.50;;;21.90;99.90;;;;;;5077133;28;20501;-75
2022/06/19 00:49:56;;;;;;;14.73;6.10;;;21.90;99.90;;;;;;5083018;28;20454;-75
2022/06/19 00:52:27;;;;;;;17.83;6.00;;;21.90;99.90;;;;;;5078410;28;20532;-75
2022/06/19 00:54:58;;;;;;;17.53;6.30;;;21.80;99.90;;;;;;5082578;28;20452;-75
2022/06/19 00:57:27;;;;;;;15.23;5.50;;;21.80;99.90;;;;;;5079413;28;20508;-75
2022/06/19 01:00:00;;;;;;;16.10;5.00;;;21.80;99.90;;;;;;5080861;28;20581;-75
2022/06/19 01:02:26;;;;;;;19.53;5.47;;;21.80;99.90;;;;;;5083002;28;21016;-75
2022/06/19 01:04:55;;;;;;;22.23;5.50;;;21.90;99.90;;;;;;5075602;28;20500;-75
2022/06/19 01:07:26;;;;;;;29.53;5.47;;;21.90;99.90;;;;;;5080958;28;20484;-75
2022/06/19 01:09:53;;;;;;;30.47;5.30;;;22.00;99.90;;;;;;5081221;28;20455;-75
2022/06/19 01:12:22;;;;;;;18.50;5.33;;;22.20;99.90;;;;;;5077457;28;20882;-75
2022/06/19 01:14:52;;;;;;;31.30;6.30;;;22.20;99.90;;;;;;5078552;28;20463;-75
2022/06/19 01:17:19;;;;;;;21.13;5.50;;;22.30;99.90;;;;;;5082974;28;20450;-75
2022/06/19 01:19:46;;;;;;;14.87;5.40;;;22.30;99.90;;;;;;5083540;28;20481;-75
2022/06/19 01:22:23;;;;;;;17.53;5.50;;;22.30;99.90;;;;;;5081204;28;20443;-75
2022/06/19 01:25:01;;;;;;;28.20;6.50;;;22.20;99.90;;;;;;5079789;28;20459;-75
2022/06/19 01:30:16;;;;;;;21.73;6.07;;;22.20;99.90;;;;;;5077859;28;20484;-75
2022/06/19 01:32:46;;;;;;;24.83;5.80;;;22.10;99.90;;;;;;5079498;28;20476;-75
2022/06/19 01:35:14;;;;;;;22.63;6.80;;;22.00;99.90;;;;;;5081109;28;20447;-75
2022/06/19 01:37:42;;;;;;;15.70;6.20;;;22.00;99.90;;;;;;5083918;28;20447;-75
2022/06/19 01:40:16;;;;;;;26.77;6.13;;;21.90;99.90;;;;;;5085762;28;20965;-75
2022/06/19 01:42:42;;;;;;;9.53;5.07;;;21.80;99.90;;;;;;5078045;28;20500;-75
2022/06/19 01:45:10;;;;;;;23.87;5.33;;;21.80;99.90;;;;;;5081243;28;20968;-75
2022/06/19 01:47:37;;;;;;;20.27;5.70;;;21.70;99.90;;;;;;5076778;28;21012;-75
2022/06/19 01:50:08;;;;;;;27.73;6.23;;;21.60;99.90;;;;;;5075716;28;20987;-75
2022/06/19 01:52:35;;;;;;;20.33;7.07;;;21.50;99.90;;;;;;5078691;28;20501;-75
2022/06/19 01:55:06;;;;;;;21.27;7.00;;;21.50;99.90;;;;;;5077091;28;20817;-75
2022/06/19 01:57:37;;;;;;;16.67;6.63;;;21.40;99.90;;;;;;5077391;28;20950;-75
2022/06/19 02:00:06;;;;;;;12.67;6.57;;;21.40;99.90;;;;;;5079621;28;20573;-75
2022/06/19 02:02:36;;;;;;;17.17;6.87;;;21.30;99.90;;;;;;5080405;28;20991;-75
2022/06/19 02:05:03;;;;;;;19.67;6.03;;;21.30;99.90;;;;;;5077104;28;20450;-75
2022/06/19 02:07:31;;;;;;;17.83;5.80;;;21.30;99.90;;;;;;5076615;28;20505;-75
2022/06/19 02:10:00;;;;;;;20.13;6.53;;;21.20;99.90;;;;;;5077248;28;20480;-75
2022/06/19 02:12:27;;;;;;;25.33;8.00;;;21.20;99.90;;;;;;5077728;28;20879;-75
2022/06/19 02:14:55;;;;;;;23.27;8.67;;;21.20;99.90;;;;;;5082401;28;20516;-75
2022/06/19 02:17:27;;;;;;;24.70;7.53;;;21.10;99.90;;;;;;5078865;28;21244;-75
2022/06/19 02:19:55;;;;;;;18.23;5.30;;;21.20;99.90;;;;;;5082242;28;20453;-75
2022/06/19 02:22:22;;;;;;;17.77;6.03;;;21.10;99.90;;;;;;5083082;28;20863;-75
2022/06/19 02:24:48;;;;;;;31.00;5.17;;;21.20;99.90;;;;;;5081596;28;20957;-74
2022/06/19 02:27:15;;;;;;;17.60;5.60;;;21.30;99.90;;;;;;5080556;28;20496;-75
2022/06/19 02:29:43;;;;;;;23.17;5.77;;;21.40;99.90;;;;;;5080467;28;20999;-75
2022/06/19 02:32:18;;;;;;;22.90;5.50;;;21.40;99.90;;;;;;5079714;28;20483;-75
2022/06/19 02:34:45;;;;;;;18.00;5.03;;;21.40;99.90;;;;;;5078833;28;20446;-75
2022/06/19 02:37:17;;;;;;;17.43;5.40;;;21.40;99.90;;;;;;5077855;28;20526;-75
2022/06/19 02:39:50;;;;;;;23.57;5.60;;;21.40;99.90;;;;;;5081426;28;20457;-75
2022/06/19 02:42:33;;;;;;;18.30;5.60;;;21.40;99.90;;;;;;5079848;28;20959;-75
2022/06/19 02:45:02;;;;;;;37.63;7.10;;;21.30;99.90;;;;;;5080838;28;20450;-75
2022/06/19 02:47:33;;;;;;;16.30;5.60;;;21.30;99.90;;;;;;5084088;28;20454;-74
2022/06/19 02:50:00;;;;;;;26.00;5.03;;;21.20;99.90;;;;;;5083098;28;20470;-75
2022/06/19 02:52:27;;;;;;;25.93;5.40;;;21.20;99.90;;;;;;5084303;28;20536;-75
2022/06/19 02:54:54;;;;;;;30.17;5.93;;;21.10;99.90;;;;;;5078708;28;20558;-75
2022/06/19 02:57:20;;;;;;;26.40;6.47;;;21.10;99.90;;;;;;5075470;28;20451;-75
2022/06/19 02:59:47;;;;;;;20.10;5.90;;;21.10;99.90;;;;;;5083328;28;20466;-75
2022/06/19 03:02:14;;;;;;;19.13;5.07;;;21.10;99.90;;;;;;5082567;28;20841;-74
2022/06/19 03:04:48;;;;;;;16.80;5.30;;;21.10;99.90;;;;;;5080456;28;20447;-75
2022/06/19 03:07:14;;;;;;;21.27;6.40;;;21.00;99.90;;;;;;5078117;28;20452;-75
2022/06/19 03:09:41;;;;;;;16.00;5.73;;;20.90;99.90;;;;;;5077900;28;20521;-75
2022/06/19 03:12:10;;;;;;;19.33;5.63;;;20.90;99.90;;;;;;5081067;28;20539;-75
2022/06/19 03:14:37;;;;;;;17.87;6.60;;;20.90;99.90;;;;;;5079420;28;20488;-75
2022/06/19 03:17:04;;;;;;;16.10;7.70;;;20.80;99.90;;;;;;5080133;28;20447;-74
2022/06/19 03:19:31;;;;;;;19.03;6.10;;;20.80;99.90;;;;;;5075412;28;20443;-75
2022/06/19 03:21:59;;;;;;;18.93;7.53;;;20.70;99.90;;;;;;5079257;28;20463;-75
2022/06/19 03:24:27;;;;;;;22.10;6.90;;;20.60;99.90;;;;;;5072960;28;20816;-75
2022/06/19 03:26:53;;;;;;;21.43;6.43;;;20.60;99.90;;;;;;5080120;28;20546;-75
2022/06/19 03:29:20;;;;;;;21.80;6.87;;;20.50;99.90;;;;;;5072257;28;20548;-75
2022/06/19 03:31:46;;;;;;;16.97;6.20;;;20.50;99.90;;;;;;5078552;28;20475;-75
2022/06/19 03:34:13;;;;;;;18.60;5.63;;;20.50;99.90;;;;;;5079830;28;20451;-75
2022/06/19 03:36:40;;;;;;;36.43;6.80;;;20.50;99.90;;;;;;5076568;28;20450;-75
2022/06/19 03:39:09;;;;;;;17.37;6.70;;;20.50;99.90;;;;;;5080139;28;20871;-75
2022/06/19 03:41:36;;;;;;;20.57;5.10;;;20.60;99.90;;;;;;5077822;28;20466;-75
2022/06/19 03:44:03;;;;;;;20.40;5.83;;;20.60;99.90;;;;;;5076281;28;21004;-75
2022/06/19 03:46:30;;;;;;;25.70;6.13;;;20.70;99.90;;;;;;5078348;28;20446;-75
2022/06/19 03:48:56;;;;;;;19.13;5.80;;;20.70;99.90;;;;;;5074938;28;20451;-75
2022/06/19 03:51:23;;;;;;;28.27;8.07;;;20.70;99.90;;;;;;5071358;28;20494;-75
2022/06/19 03:53:50;;;;;;;25.60;6.00;;;20.70;99.90;;;;;;5077212;28;20541;-75
2022/06/19 03:56:21;;;;;;;23.20;6.50;;;20.80;99.90;;;;;;5083666;28;20442;-75
2022/06/19 03:58:48;;;;;;;28.80;7.27;;;20.90;99.90;;;;;;5078836;28;20455;-74
2022/06/19 04:01:16;;;;;;;19.17;5.50;;;21.00;99.90;;;;;;5074320;28;20851;-75
2022/06/19 04:03:43;;;;;;;24.03;7.17;;;21.10;99.90;;;;;;5080133;28;20447;-74
2022/06/19 04:06:10;;;;;;;17.13;5.70;;;21.10;99.90;;;;;;5075856;28;20501;-75
2022/06/19 04:08:38;;;;;;;21.80;5.50;;;21.10;99.90;;;;;;5076883;28;20491;-75
2022/06/19 04:11:05;;;;;;;19.03;6.23;;;21.10;99.90;;;;;;5076585;28;20517;-75
2022/06/19 04:13:34;;;;;;;22.83;6.73;;;21.10;99.90;;;;;;5080080;28;20535;-75
2022/06/19 04:16:01;;;;;;;18.20;6.63;;;21.20;99.90;;;;;;5078696;28;20455;-75
2022/06/19 04:18:29;;;;;;;23.93;6.10;;;21.00;99.90;;;;;;5076434;28;20595;-75
2022/06/19 04:20:56;;;;;;;27.17;6.10;;;21.00;99.90;;;;;;5078139;28;20503;-75
2022/06/19 04:23:23;;;;;;;25.50;6.30;;;21.00;99.90;;;;;;5074852;28;20462;-75
2022/06/19 04:25:51;;;;;;;21.83;5.70;;;21.10;99.90;;;;;;5080133;28;20447;-75
2022/06/19 04:28:18;;;;;;;21.83;5.80;;;21.10;99.90;;;;;;5076759;28;20490;-75
2022/06/19 04:30:47;;;;;;;26.63;5.10;;;21.10;99.90;;;;;;5081389;28;20472;-75
2022/06/19 04:33:14;;;;;;;21.40;6.10;;;21.20;99.90;;;;;;5081038;28;20525;-75
2022/06/19 04:35:41;;;;;;;24.90;5.80;;;21.20;99.90;;;;;;5085316;28;20478;-75
2022/06/19 04:38:07;;;;;;;14.90;5.90;;;21.30;99.90;;;;;;5079987;28;20864;-75
2022/06/19 04:40:35;;;;;;;15.20;5.73;;;21.40;99.90;;;;;;5079991;28;20536;-75
2022/06/19 04:43:01;;;;;;;23.70;4.70;;;21.50;99.90;;;;;;5080832;28;20880;-75
2022/06/19 04:45:28;;;;;;;21.77;5.30;;;21.60;99.90;;;;;;5079745;28;21021;-75
2022/06/19 04:47:56;;;;;;;23.63;6.53;;;21.70;99.90;;;;;;5079205;28;20549;-75
2022/06/19 04:50:23;;;;;;;21.83;5.60;;;21.80;99.90;;;;;;5084329;28;20516;-75
2022/06/19 04:52:50;;;;;;;17.20;5.30;;;21.90;99.90;;;;;;5080696;28;20482;-75
2022/06/19 04:55:18;;;;;;;25.03;5.33;;;22.00;99.90;;;;;;5082893;28;20513;-75
2022/06/19 04:57:45;;;;;;;22.70;5.30;;;22.10;99.90;;;;;;5079492;28;20451;-75
2022/06/19 05:00:14;;;;;;;20.53;5.40;;;22.10;99.90;;;;;;5083051;28;20474;-75
2022/06/19 05:02:41;;;;;;;15.60;5.53;;;22.20;99.90;;;;;;5081102;28;20512;-75
2022/06/19 05:05:16;;;;;;;13.37;5.10;;;22.30;99.90;;;;;;5077274;28;20454;-75
2022/06/19 05:07:43;;;;;;;18.53;5.17;;;22.40;99.90;;;;;;5072795;28;20467;-75
2022/06/19 05:10:10;;;;;;;18.17;5.20;;;22.60;99.90;;;;;;5077464;28;20459;-75
2022/06/19 05:12:38;;;;;;;13.83;5.60;;;22.80;99.90;;;;;;5077949;28;21065;-75
2022/06/19 05:15:05;;;;;;;19.40;5.37;;;22.90;99.90;;;;;;5080235;28;20447;-75
2022/06/19 05:17:33;;;;;;;20.27;6.03;;;23.10;99.90;;;;;;5079881;28;20443;-75
2022/06/19 05:20:00;;;;;;;15.30;4.63;;;23.20;99.90;;;;;;5075669;28;20551;-75
2022/06/19 05:22:28;;;;;;;21.63;5.60;;;23.30;99.90;;;;;;5082933;28;20455;-75
2022/06/19 05:24:54;;;;;;;27.83;5.90;;;23.30;99.90;;;;;;5078817;28;20542;-75
2022/06/19 05:27:21;;;;;;;10.50;4.70;;;23.40;99.90;;;;;;5083903;28;20455;-75
2022/06/19 05:29:47;;;;;;;12.87;5.00;;;23.50;99.90;;;;;;5081656;28;20867;-75
2022/06/19 05:32:14;;;;;;;15.57;5.40;;;23.60;99.90;;;;;;5082443;28;20482;-75
2022/06/19 05:34:41;;;;;;;18.27;5.43;;;23.70;99.90;;;;;;5078265;28;20451;-75
2022/06/19 05:37:07;;;;;;;25.27;5.67;;;23.80;99.90;;;;;;5077593;28;20451;-75
2022/06/19 05:39:35;;;;;;;27.53;6.20;;;23.90;99.90;;;;;;5082348;28;21049;-75
2022/06/19 05:42:04;;;;;;;19.80;5.23;;;24.00;99.90;;;;;;5076992;28;20471;-75
2022/06/19 05:44:31;;;;;;;22.70;5.50;;;24.20;99.90;;;;;;5077808;28;20607;-75
2022/06/19 05:46:57;;;;;;;17.13;5.53;;;24.30;99.90;;;;;;5081296;28;20451;-75
2022/06/19 05:49:24;;;;;;;18.37;5.50;;;24.30;99.90;;;;;;5078364;28;20467;-75
2022/06/19 05:51:51;;;;;;;27.80;5.93;;;24.50;99.90;;;;;;5077645;28;20482;-75
2022/06/19 05:54:17;;;;;;;22.20;5.80;;;24.60;99.90;;;;;;5077728;28;20444;-75
2022/06/19 05:56:45;;;;;;;27.30;6.50;;;24.80;99.90;;;;;;5081592;28;20525;-75
2022/06/19 05:59:12;;;;;;;16.07;5.33;;;25.00;99.90;;;;;;5079176;28;20459;-75
2022/06/19 06:01:38;;;;;;;19.93;5.87;;;25.00;99.90;;;;;;5076837;28;20480;-75
2022/06/19 06:04:05;;;;;;;20.13;5.83;;;25.10;99.90;;;;;;5079641;28;20865;-75
2022/06/19 06:06:32;;;;;;;13.30;5.10;;;25.20;99.90;;;;;;5080639;28;20459;-75
2022/06/19 06:08:59;;;;;;;19.83;5.90;;;25.30;99.90;;;;;;5082349;28;20447;-75
2022/06/19 06:11:26;;;;;;;20.80;4.93;;;25.50;99.90;;;;;;5073221;28;20475;-75
2022/06/19 06:13:54;;;;;;;18.43;5.20;;;25.70;99.90;;;;;;5080180;28;20532;-75
2022/06/19 06:16:22;;;;;;;16.40;5.63;;;25.90;99.90;;;;;;5078814;28;20455;-75
2022/06/19 06:18:49;;;;;;;24.10;5.70;;;26.10;99.90;;;;;;5078851;28;20942;-75
2022/06/19 06:21:18;;;;;;;18.97;5.23;;;26.10;99.90;;;;;;5080238;28;20473;-75
2022/06/19 06:23:45;;;;;;;28.17;5.57;;;26.40;99.90;;;;;;5074751;28;20447;-76
2022/06/19 06:26:14;;;;;;;24.33;5.70;;;26.60;99.90;;;;;;5078818;28;20496;-75
2022/06/19 06:28:42;;;;;;;23.43;5.70;;;26.70;99.90;;;;;;5076985;28;20455;-74
2022/06/19 06:31:11;;;;;;;23.20;5.50;;;27.00;99.90;;;;;;5074938;28;20498;-74
2022/06/19 06:33:38;;;;;;;22.17;5.97;;;27.10;99.90;;;;;;5081057;28;20483;-74
2022/06/19 06:36:06;;;;;;;19.30;5.53;;;27.10;99.90;;;;;;5080800;28;20944;-74
2022/06/19 06:38:33;;;;;;;19.77;5.50;;;27.10;99.90;;;;;;5077253;28;20446;-74
2022/06/19 06:41:00;;;;;;;18.30;5.77;;;27.10;99.90;;;;;;5077354;28;20474;-74
2022/06/19 06:43:27;;;;;;;14.87;6.40;;;27.00;99.90;;;;;;5077247;28;20805;-74
2022/06/19 06:45:54;;;;;;;34.43;5.80;;;27.10;99.90;;;;;;5074777;28;20475;-75
2022/06/19 06:48:22;;;;;;;16.90;4.90;;;27.30;99.90;;;;;;5076279;28;20513;-75
2022/06/19 06:50:49;;;;;;;14.47;5.30;;;27.40;99.90;;;;;;5074396;28;20479;-74
2022/06/19 06:53:17;;;;;;;17.10;5.00;;;27.50;99.90;;;;;;5074976;28;20494;-75
2022/06/19 06:55:45;;;;;;;24.10;6.10;;;27.50;99.90;;;;;;5078661;28;20447;-75
2022/06/19 06:58:12;;;;;;;16.47;4.80;;;27.50;99.90;;;;;;5073485;28;20444;-75
2022/06/19 07:00:39;;;;;;;34.10;5.33;;;27.60;99.90;;;;;;5078075;28;20463;-74
2022/06/19 07:03:07;;;;;;;17.17;5.23;;;27.60;99.90;;;;;;5082884;28;20456;-74
2022/06/19 07:05:35;;;;;;;15.63;5.83;;;27.80;99.90;;;;;;5075040;28;20515;-74
2022/06/19 07:08:02;;;;;;;22.73;6.33;;;28.00;99.90;;;;;;5076659;28;20443;-75
2022/06/19 07:10:29;;;;;;;17.40;5.67;;;28.10;99.90;;;;;;5076112;28;20479;-74
2022/06/19 07:12:55;;;;;;;17.60;6.33;;;28.10;99.90;;;;;;5078430;28;20990;-74
2022/06/19 07:15:22;;;;;;;17.10;5.60;;;28.40;99.90;;;;;;5078833;28;20528;-74
2022/06/19 07:17:49;;;;;;;25.93;6.77;;;28.80;99.90;;;;;;5077023;28;20447;-74
2022/06/19 07:20:17;;;;;;;16.43;6.00;;;29.00;99.90;;;;;;5078878;28;20473;-74
2022/06/19 07:22:45;;;;;;;16.90;6.40;;;29.30;99.90;;;;;;5077797;28;20439;-74
2022/06/19 07:25:16;;;;;;;15.40;6.03;;;29.40;99.90;;;;;;5082656;28;20446;-74
2022/06/19 07:27:43;;;;;;;16.97;7.00;;;29.70;99.90;;;;;;5079458;28;20976;-74
2022/06/19 07:30:14;;;;;;;16.20;6.67;;;29.80;99.90;;;;;;5077760;28;21056;-74
2022/06/19 07:32:41;;;;;;;20.13;8.37;;;30.00;99.90;;;;;;5077979;28;20529;-73
2022/06/19 07:35:08;;;;;;;13.80;7.40;;;30.20;99.90;;;;;;5072705;28;20459;-74
2022/06/19 07:37:35;;;;;;;13.53;6.90;;;30.30;99.90;;;;;;5076171;28;20507;-74
2022/06/19 07:40:03;;;;;;;17.47;7.00;;;30.50;99.90;;;;;;5083995;28;20471;-73
2022/06/19 07:42:30;;;;;;;21.13;7.53;;;30.60;99.90;;;;;;5079244;28;20535;-74
2022/06/19 07:44:57;;;;;;;19.33;6.80;;;30.70;99.90;;;;;;5080954;28;20493;-73
2022/06/19 07:50:15;;;;;;;16.23;6.67;;;31.00;99.90;;;;;;5082161;28;20458;-74
2022/06/19 07:52:43;;;;;;;14.37;7.00;;;31.00;99.90;;;;;;5072470;28;20491;-74
2022/06/19 07:55:14;;;;;;;15.80;7.00;;;31.10;99.90;;;;;;5073098;28;20505;-74
2022/06/19 07:57:41;;;;;;;14.67;7.37;;;31.10;99.90;;;;;;5083291;28;20505;-72
2022/06/19 08:00:16;;;;;;;19.30;7.07;;;31.20;99.90;;;;;;5077135;28;20470;-72
2022/06/19 08:02:43;;;;;;;20.83;7.17;;;31.40;99.90;;;;;;5073080;28;20451;-72
2022/06/19 08:05:11;;;;;;;16.07;6.23;;;31.50;99.90;;;;;;5080090;28;20446;-73
2022/06/19 08:07:38;;;;;;;15.60;7.97;;;31.50;99.90;;;;;;5082372;28;21935;-71
2022/06/19 08:10:06;;;;;;;22.37;7.10;;;31.40;99.90;;;;;;5084224;28;20520;-73
2022/06/19 08:12:34;;;;;;;14.73;7.53;;;31.40;99.90;;;;;;5077150;28;20500;-72
2022/06/19 08:15:00;;;;;;;29.67;7.00;;;31.40;99.90;;;;;;5079163;28;20489;-72
2022/06/19 08:17:27;;;;;;;15.83;7.23;;;31.50;99.90;;;;;;5077410;28;20447;-73
2022/06/19 08:19:54;;;;;;;19.03;7.70;;;31.40;99.90;;;;;;5080234;28;20442;-72
2022/06/19 08:22:20;;;;;;;18.27;7.60;;;31.40;99.90;;;;;;5082758;28;20512;-73
2022/06/19 08:24:47;;;;;;;11.13;7.20;;;31.50;99.90;;;;;;5077117;28;20505;-73
2022/06/19 08:27:14;;;;;;;13.90;7.77;;;31.80;99.90;;;;;;5083633;28;20499;-73
2022/06/19 08:29:42;;;;;;;20.73;7.53;;;32.10;99.90;;;;;;5080727;28;20451;-73
2022/06/19 08:32:09;;;;;;;19.40;8.47;;;32.30;99.80;;;;;;5082021;28;20947;-72
2022/06/19 08:34:35;;;;;;;20.03;7.20;;;32.40;99.30;;;;;;5079210;28;21101;-72
2022/06/19 08:37:04;;;;;;;17.43;7.10;;;32.30;99.90;;;;;;5083342;28;20493;-73
2022/06/19 08:39:32;;;;;;;20.73;7.90;;;32.10;99.30;;;;;;5077872;28;20926;-73
2022/06/19 08:42:30;;;;;;;17.30;7.80;;;32.30;99.40;;;;;;5076569;28;20521;-73
2022/06/19 08:45:22;;;;;;;14.97;6.93;;;32.60;99.40;;;;;;5074081;28;20955;-73
2022/06/19 08:48:01;;;;;;;159.87;57.73;;;32.90;99.00;;;;;;5064343;28;20988;-73
2022/06/19 08:50:35;;;;;;;42.17;15.93;;;33.40;99.00;;;;;;5078815;28;21175;-73
2022/06/19 08:53:20;;;;;;;57.90;33.17;;;33.80;98.40;;;;;;5082939;28;20475;-73
2022/06/19 08:55:55;;;;;;;22.40;8.77;;;34.00;97.90;;;;;;5082475;28;20806;-72
2022/06/19 08:58:32;;;;;;;22.93;8.10;;;34.20;96.90;;;;;;5080093;28;20447;-72
2022/06/19 09:01:05;;;;;;;20.73;9.17;;;34.40;97.20;;;;;;5083290;28;20872;-72
2022/06/19 09:06:33;;;;;;;15.10;7.40;;;34.40;96.10;;;;;;5080931;28;20465;-72
2022/06/19 09:09:17;;;;;;;15.93;6.13;;;34.30;96.00;;;;;;5080945;28;20538;-72
2022/06/19 09:12:09;;;;;;;18.60;6.43;;;34.40;96.30;;;;;;5083974;28;20627;-72
2022/06/19 09:14:39;;;;;;;13.80;6.30;;;34.60;96.10;;;;;;5083896;28;20474;-72
2022/06/19 09:17:16;;;;;;;14.48;7.88;;;34.70;96.20;;;;;;5079359;28;20449;-72
2022/06/19 09:19:49;;;;;;;15.77;6.80;;;34.70;95.40;;;;;;5076036;28;20192;-72
2022/06/19 09:22:51;;;;;;;21.47;6.70;;;34.60;95.50;;;;;;5082139;28;20962;-72
2022/06/19 09:25:37;;;;;;;21.23;7.17;;;34.50;95.60;;;;;;5041582;28;20447;-71
2022/06/19 09:28:10;;;;;;;23.43;7.87;;;34.30;95.10;;;;;;5076228;28;20857;-72
2022/06/19 09:30:42;;;;;;;14.30;6.53;;;34.00;94.90;;;;;;5082948;28;20516;-72
2022/06/19 09:33:15;;;;;;;22.30;7.60;;;34.00;95.20;;;;;;5079307;28;21017;-72
2022/06/19 09:35:45;;;;;;;13.17;6.50;;;34.00;95.00;;;;;;5078820;28;20459;-72
2022/06/19 09:38:16;;;;;;;17.93;6.97;;;33.70;94.90;;;;;;5081258;28;20451;-72
2022/06/19 09:40:47;;;;;;;12.20;6.87;;;33.50;95.20;;;;;;5082370;28;20520;-72
2022/06/19 09:43:22;;;;;;;17.70;7.47;;;33.50;95.30;;;;;;5074573;28;20874;-72
2022/06/19 09:45:58;;;;;;;18.17;7.00;;;33.60;95.20;;;;;;5078014;28;20464;-72
2022/06/19 09:48:32;;;;;;;26.67;6.83;;;33.60;95.00;;;;;;5079915;28;20455;-73
2022/06/19 09:51:06;;;;;;;18.80;7.23;;;33.80;95.30;;;;;;5080492;28;21052;-72
2022/06/19 09:53:38;;;;;;;21.20;6.70;;;34.00;95.10;;;;;;5075646;28;20488;-73
2022/06/19 09:56:09;;;;;;;12.37;6.67;;;34.20;94.60;;;;;;5075697;28;20455;-73
2022/06/19 09:58:43;;;;;;;18.60;6.97;;;34.40;94.30;;;;;;5076577;28;20459;-71
2022/06/19 10:01:10;;;;;;;18.77;7.00;;;33.90;93.40;;;;;;5080051;28;20467;-71
2022/06/19 10:03:42;;;;;;;19.50;7.43;;;33.30;94.30;;;;;;5079695;28;20444;-70
2022/06/19 10:06:13;;;;;;;24.83;6.57;;;33.10;95.40;;;;;;5084840;28;20501;-76
2022/06/19 10:08:45;;;;;;;10.90;6.40;;;33.00;95.20;;;;;;5081432;28;20496;-76
2022/06/19 10:11:15;;;;;;;16.20;7.10;;;33.00;95.40;;;;;;5081769;28;20539;-74
2022/06/19 10:13:49;;;;;;;16.63;6.40;;;32.90;94.70;;;;;;5078989;28;21068;-74
2022/06/19 10:16:23;;;;;;;16.00;5.87;;;32.90;95.50;;;;;;5074816;28;20445;-77
2022/06/19 10:18:53;;;;;;;17.60;7.37;;;32.90;94.70;;;;;;5078431;28;20500;-76
2022/06/19 10:24:18;;;;;;;13.00;7.53;;;32.80;95.50;;;;;;5075933;28;21054;-73
2022/06/19 10:26:51;;;;;;;14.07;6.60;;;32.90;96.10;;;;;;5075095;28;20717;-76
2022/06/19 10:29:33;;;;;;;16.23;7.50;;;32.90;95.30;;;;;;5078528;28;20456;-75
2022/06/19 10:32:14;;;;;;;25.00;7.80;;;32.90;95.20;;;;;;5079578;28;20467;-74
2022/06/19 10:34:51;;;;;;;13.50;6.20;;;32.70;95.60;;;;;;5078055;28;20560;-73
2022/06/19 10:37:27;;;;;;;16.80;7.30;;;33.00;96.60;;;;;;5078988;28;21019;-74
2022/06/19 10:40:08;;;;;;;13.83;7.17;;;33.20;95.30;;;;;;5074670;28;20487;-73
2022/06/19 10:42:44;;;;;;;15.20;7.00;;;33.20;95.70;;;;;;5077146;28;20581;-74
2022/06/19 10:45:22;;;;;;;20.03;7.30;;;33.30;95.60;;;;;;5080527;28;21045;-73
2022/06/19 10:47:59;;;;;;;21.83;7.70;;;33.20;94.90;;;;;;5078282;28;20450;-76
2022/06/19 10:50:36;;;;;;;11.30;6.60;;;33.30;95.30;;;;;;5077782;28;20471;-75
2022/06/19 10:53:15;;;;;;;18.37;6.97;;;33.30;94.60;;;;;;5080359;28;21016;-77
2022/06/19 10:55:48;;;;;;;15.90;7.03;;;33.20;94.70;;;;;;5078527;28;20477;-73
2022/06/19 10:58:17;;;;;;;20.63;7.10;;;33.30;96.00;;;;;;5075461;28;20489;-72
2022/06/19 11:00:45;;;;;;;22.03;6.90;;;33.40;96.10;;;;;;5076577;28;20738;-71
2022/06/19 11:06:12;;;;;;;13.40;6.70;;;33.30;96.00;;;;;;5072062;28;20427;-71
2022/06/19 11:08:43;;;;;;;14.83;7.43;;;33.30;95.80;;;;;;5072856;28;20451;-71
2022/06/19 11:11:14;;;;;;;18.27;7.23;;;33.50;95.90;;;;;;5078588;28;20467;-71
2022/06/19 11:13:59;;;;;;;20.67;6.93;;;33.70;95.90;;;;;;5077387;28;22417;-72
2022/06/19 11:16:27;;;;;;;23.40;7.40;;;33.90;96.00;;;;;;5075224;28;20508;-71
2022/06/19 11:18:57;;;;;;;17.47;6.37;;;34.00;95.90;;;;;;5077352;28;20981;-70
2022/06/19 11:21:28;;;;;;;15.67;6.90;;;33.80;95.60;;;;;;5076104;28;20482;-72
2022/06/19 11:23:57;;;;;;;12.40;6.77;;;33.50;96.20;;;;;;5072292;28;20874;-71
2022/06/19 11:26:28;;;;;;;17.80;6.83;;;33.30;96.40;;;;;;5078753;28;20880;-72
2022/06/19 11:28:59;;;;;;;29.93;6.87;;;33.10;96.40;;;;;;5075143;28;20455;-71
2022/06/19 11:31:29;;;;;;;16.13;7.70;;;32.90;96.60;;;;;;5078235;28;20483;-76
2022/06/19 11:34:00;;;;;;;19.40;6.50;;;32.80;96.80;;;;;;5072486;28;20504;-74
2022/06/19 11:36:32;;;;;;;16.10;7.37;;;32.80;96.80;;;;;;5079720;28;20978;-72
2022/06/19 11:39:00;;;;;;;20.57;7.40;;;32.90;96.30;;;;;;5076058;28;20451;-73
2022/06/19 11:41:31;;;;;;;17.40;7.40;;;32.90;96.90;;;;;;5081022;28;20516;-73
2022/06/19 11:44:13;;;;;;;15.83;7.30;;;33.10;97.00;;;;;;5074806;28;20455;-72
2022/06/19 11:46:46;;;;;;;19.97;7.13;;;33.20;96.50;;;;;;5074912;28;20862;-72
2022/06/19 11:49:27;;;;;;;22.23;6.53;;;33.30;96.60;;;;;;5082416;28;20504;-72
2022/06/19 11:51:59;;;;;;;19.23;7.63;;;33.60;96.60;;;;;;5078894;28;20516;-73
2022/06/19 11:54:29;;;;;;;12.47;6.70;;;33.60;95.70;;;;;;5076630;28;20482;-73
2022/06/19 11:56:56;;;;;;;18.45;6.43;;;33.70;96.20;;;;;;5076833;28;20462;-76
2022/06/19 11:59:34;;;;;;;16.17;6.47;;;33.80;96.50;;;;;;5076274;28;20197;-77
2022/06/19 12:02:01;;;;;;;24.83;7.50;;;33.90;95.30;;;;;;5079774;28;20471;-77
2022/06/19 12:04:31;;;;;;;17.80;7.20;;;34.00;95.10;;;;;;5077317;28;20455;-77
2022/06/19 12:07:03;;;;;;;22.70;6.70;;;34.10;94.90;;;;;;5080762;28;20549;-77
2022/06/19 12:09:35;;;;;;;28.37;7.77;;;34.00;95.30;;;;;;5081284;28;20460;-76
2022/06/19 12:12:09;;;;;;;17.43;7.20;;;34.20;94.60;;;;;;5078002;28;21065;-76
2022/06/19 12:14:38;;;;;;;22.83;7.60;;;34.20;94.50;;;;;;5078502;28;20479;-76
2022/06/19 12:17:20;;;;;;;18.20;7.13;;;34.40;95.20;;;;;;5080997;28;20617;-76
2022/06/19 12:20:00;;;;;;;16.03;6.70;;;34.60;94.20;;;;;;5075585;28;20493;-77
2022/06/19 12:22:37;;;;;;;20.23;7.77;;;34.70;94.00;;;;;;5079537;28;20515;-77
2022/06/19 12:25:11;;;;;;;24.40;7.10;;;34.40;94.00;;;;;;5078906;28;20542;-78
2022/06/19 12:27:45;;;;;;;20.70;7.13;;;34.40;94.20;;;;;;5076256;28;20456;-77
2022/06/19 12:30:18;;;;;;;18.20;6.95;;;34.40;94.50;;;;;;5075403;28;20458;-78
2022/06/19 12:32:48;;;;;;;22.13;7.30;;;34.20;93.90;;;;;;5078621;28;20292;-78
2022/06/19 12:35:23;;;;;;;19.00;7.93;;;34.10;94.30;;;;;;5077541;28;20479;-77
2022/06/19 12:37:51;;;;;;;12.13;6.77;;;33.90;94.10;;;;;;5078498;28;20450;-77
2022/06/19 12:40:20;;;;;;;26.13;7.90;;;33.80;94.40;;;;;;5080581;28;20516;-78
2022/06/19 12:42:52;;;;;;;29.43;8.17;;;33.70;93.80;;;;;;5083731;28;20458;-78
2022/06/19 12:45:35;;;;;;;20.33;7.40;;;33.70;94.30;;;;;;5080752;28;20836;-78
2022/06/19 12:48:14;;;;;;;19.50;7.50;;;33.70;93.80;;;;;;5077537;28;20462;-78
2022/06/19 12:50:50;;;;;;;23.73;7.50;;;33.70;94.00;;;;;;5080275;28;20469;-77
2022/06/19 12:53:42;;;;;;;46.97;7.00;;;33.90;94.10;;;;;;5080407;28;20483;-77
2022/06/19 12:56:18;;;;;;;17.57;6.97;;;34.10;94.10;;;;;;5080393;28;20896;-78
2022/06/19 12:59:05;;;;;;;20.90;7.10;;;34.30;93.50;;;;;;5082735;28;20466;-78
2022/06/19 13:01:39;;;;;;;10.67;6.30;;;34.30;93.50;;;;;;5084114;28;20528;-78
2022/06/19 13:04:32;;;;;;;12.80;6.57;;;34.40;93.70;;;;;;5084588;28;20520;-77